Archival Weather

Vermilion Rgnl

Danville, Illinois (KDNV)

Report from: Saturday, April 13, 2024 2:55 PM CDT
Current time: Sunday, July 14, 2024 5:37 AM CDT

Current weather – Weather history – Daily summaries
Weather forecast

Temperature20.3°C (68.5°F)
Dew point4.2°C (39.6°F)
Winds 7 kts (3.6 m/s, 8.1 mph) West-Southwest (250°)
Wind gusts 14 kts (7.2 m/s, 16.1 mph)
Visibility10 mi. (16.1 km)
Clouds Sky clear
Altimeter30.07 in.Hg (1018 mB)
Relative humidity35 %
Density altitude574 ft. (175 m)
Remarks Fully automated report
Automated weather observing station with precipitation discriminator
Flight conditions Visual Meteorological Conditions
Raw dataKDNV 131955Z AUTO 25007G14KT 10SM CLR 20/04 A3007 RMK AO2 T02030042
An error has occurred. This application may no longer respond until reloaded. Reload 🗙